sensor_id;sensor_type;location;lat;lon;timestamp;pressure;altitude;pressure_sealevel;temperature;humidity
76054;BME280;64752;48.870;9.082;2023-06-22T00:01:06;98001.06;;;20.38;100.00
76054;BME280;64752;48.870;9.082;2023-06-22T00:03:31;98002.50;;;20.42;100.00
76054;BME280;64752;48.870;9.082;2023-06-22T00:05:57;97995.41;;;20.43;100.00
76054;BME280;64752;48.870;9.082;2023-06-22T00:08:22;97987.41;;;20.45;100.00
76054;BME280;64752;48.870;9.082;2023-06-22T00:10:47;97998.41;;;20.38;100.00
76054;BME280;64752;48.870;9.082;2023-06-22T00:13:13;97992.88;;;20.30;100.00
76054;BME280;64752;48.870;9.082;2023-06-22T00:15:40;97988.50;;;20.18;100.00
76054;BME280;64752;48.870;9.082;2023-06-22T00:18:07;97996.16;;;20.10;100.00
76054;BME280;64752;48.870;9.082;2023-06-22T00:20:33;98002.56;;;19.94;100.00
76054;BME280;64752;48.870;9.082;2023-06-22T00:23:02;97994.50;;;19.84;100.00
76054;BME280;64752;48.870;9.082;2023-06-22T00:25:36;98006.56;;;19.76;100.00
76054;BME280;64752;48.870;9.082;2023-06-22T00:28:03;97996.53;;;19.68;100.00
76054;BME280;64752;48.870;9.082;2023-06-22T00:30:29;97996.47;;;19.57;100.00
76054;BME280;64752;48.870;9.082;2023-06-22T00:32:55;97994.34;;;19.62;100.00
76054;BME280;64752;48.870;9.082;2023-06-22T00:35:20;98002.69;;;19.56;100.00
76054;BME280;64752;48.870;9.082;2023-06-22T00:37:46;98003.72;;;19.53;100.00
76054;BME280;64752;48.870;9.082;2023-06-22T00:40:11;97992.84;;;19.47;100.00
76054;BME280;64752;48.870;9.082;2023-06-22T00:42:40;97986.44;;;19.38;100.00
76054;BME280;64752;48.870;9.082;2023-06-22T00:45:06;97986.44;;;19.38;100.00
76054;BME280;64752;48.870;9.082;2023-06-22T00:47:34;98001.50;;;19.36;100.00
76054;BME280;64752;48.870;9.082;2023-06-22T00:49:59;98032.50;;;19.43;100.00
76054;BME280;64752;48.870;9.082;2023-06-22T00:52:26;98043.97;;;19.30;100.00
76054;BME280;64752;48.870;9.082;2023-06-22T00:54:58;98023.72;;;19.19;100.00
76054;BME280;64752;48.870;9.082;2023-06-22T00:57:26;98032.00;;;19.13;100.00
76054;BME280;64752;48.870;9.082;2023-06-22T00:59:53;98064.63;;;19.10;100.00
76054;BME280;64752;48.870;9.082;2023-06-22T01:02:19;98095.31;;;19.22;100.00
76054;BME280;64752;48.870;9.082;2023-06-22T01:04:44;98080.78;;;19.30;100.00
76054;BME280;64752;48.870;9.082;2023-06-22T01:07:19;98064.72;;;19.09;100.00
76054;BME280;64752;48.870;9.082;2023-06-22T01:10:10;98071.88;;;18.94;100.00
76054;BME280;64752;48.870;9.082;2023-06-22T01:12:43;98056.28;;;18.78;100.00
76054;BME280;64752;48.870;9.082;2023-06-22T01:15:13;98046.50;;;18.80;100.00
76054;BME280;64752;48.870;9.082;2023-06-22T01:17:41;98048.06;;;18.69;100.00
76054;BME280;64752;48.870;9.082;2023-06-22T01:20:09;98039.13;;;18.59;100.00
76054;BME280;64752;48.870;9.082;2023-06-22T01:26:05;98033.28;;;18.94;100.00
76054;BME280;64752;48.870;9.082;2023-06-22T01:31:15;98023.19;;;19.14;100.00
76054;BME280;64752;48.870;9.082;2023-06-22T01:33:44;98026.84;;;19.24;100.00
76054;BME280;64752;48.870;9.082;2023-06-22T01:36:10;98028.34;;;19.15;100.00
76054;BME280;64752;48.870;9.082;2023-06-22T01:38:37;98021.19;;;19.04;100.00
76054;BME280;64752;48.870;9.082;2023-06-22T01:41:03;98024.31;;;19.10;100.00
76054;BME280;64752;48.870;9.082;2023-06-22T01:43:29;98027.47;;;19.15;100.00
76054;BME280;64752;48.870;9.082;2023-06-22T01:45:56;98025.84;;;19.01;100.00
76054;BME280;64752;48.870;9.082;2023-06-22T01:48:22;98026.47;;;18.92;100.00
76054;BME280;64752;48.870;9.082;2023-06-22T01:50:48;98020.97;;;18.82;100.00
76054;BME280;64752;48.870;9.082;2023-06-22T01:53:14;98025.47;;;18.80;100.00
76054;BME280;64752;48.870;9.082;2023-06-22T01:55:39;98038.22;;;18.73;100.00
76054;BME280;64752;48.870;9.082;2023-06-22T01:58:05;98042.41;;;18.76;100.00
76054;BME280;64752;48.870;9.082;2023-06-22T02:00:33;98026.25;;;18.82;100.00
76054;BME280;64752;48.870;9.082;2023-06-22T02:03:13;98030.66;;;18.81;100.00
76054;BME280;64752;48.870;9.082;2023-06-22T02:05:50;98037.97;;;18.76;100.00
76054;BME280;64752;48.870;9.082;2023-06-22T02:08:25;98038.69;;;18.65;100.00
76054;BME280;64752;48.870;9.082;2023-06-22T02:10:54;98037.56;;;18.69;100.00
76054;BME280;64752;48.870;9.082;2023-06-22T02:13:23;98042.38;;;18.63;100.00
76054;BME280;64752;48.870;9.082;2023-06-22T02:15:49;98045.13;;;18.61;100.00
76054;BME280;64752;48.870;9.082;2023-06-22T02:18:15;98044.59;;;18.69;100.00
76054;BME280;64752;48.870;9.082;2023-06-22T02:20:40;98039.84;;;18.61;100.00
76054;BME280;64752;48.870;9.082;2023-06-22T02:23:06;98036.94;;;18.53;100.00
76054;BME280;64752;48.870;9.082;2023-06-22T02:25:33;98039.75;;;18.50;100.00
76054;BME280;64752;48.870;9.082;2023-06-22T02:27:58;98036.47;;;18.46;100.00
76054;BME280;64752;48.870;9.082;2023-06-22T02:30:24;98029.84;;;18.41;100.00
76054;BME280;64752;48.870;9.082;2023-06-22T02:32:49;98030.78;;;18.27;100.00
76054;BME280;64752;48.870;9.082;2023-06-22T02:35:16;98029.97;;;18.12;100.00
76054;BME280;64752;48.870;9.082;2023-06-22T02:37:42;98022.06;;;18.26;100.00
76054;BME280;64752;48.870;9.082;2023-06-22T02:40:08;98020.09;;;18.43;100.00
76054;BME280;64752;48.870;9.082;2023-06-22T02:42:35;98019.06;;;18.45;100.00
76054;BME280;64752;48.870;9.082;2023-06-22T02:45:00;98019.25;;;18.42;100.00
76054;BME280;64752;48.870;9.082;2023-06-22T02:47:26;98018.63;;;18.39;100.00
76054;BME280;64752;48.870;9.082;2023-06-22T02:49:51;98010.31;;;18.45;100.00
76054;BME280;64752;48.870;9.082;2023-06-22T02:52:16;98005.59;;;18.50;100.00
76054;BME280;64752;48.870;9.082;2023-06-22T02:54:42;98014.31;;;18.50;100.00
76054;BME280;64752;48.870;9.082;2023-06-22T02:57:07;98002.16;;;18.49;100.00
76054;BME280;64752;48.870;9.082;2023-06-22T02:59:38;98003.16;;;18.34;100.00
76054;BME280;64752;48.870;9.082;2023-06-22T03:02:06;98008.63;;;18.31;100.00
76054;BME280;64752;48.870;9.082;2023-06-22T03:04:31;98018.03;;;18.21;100.00
76054;BME280;64752;48.870;9.082;2023-06-22T03:06:57;98014.56;;;18.07;100.00
76054;BME280;64752;48.870;9.082;2023-06-22T03:09:27;98003.72;;;17.99;100.00
76054;BME280;64752;48.870;9.082;2023-06-22T03:11:56;97996.34;;;17.91;100.00
76054;BME280;64752;48.870;9.082;2023-06-22T03:14:21;97997.53;;;18.00;100.00
76054;BME280;64752;48.870;9.082;2023-06-22T03:16:47;97997.53;;;18.00;100.00
76054;BME280;64752;48.870;9.082;2023-06-22T03:19:13;97998.47;;;17.99;100.00
76054;BME280;64752;48.870;9.082;2023-06-22T03:21:39;97994.31;;;18.09;100.00
76054;BME280;64752;48.870;9.082;2023-06-22T03:24:05;97990.53;;;18.14;100.00
76054;BME280;64752;48.870;9.082;2023-06-22T03:26:31;97994.50;;;18.06;100.00
76054;BME280;64752;48.870;9.082;2023-06-22T03:28:56;97985.66;;;17.95;100.00
76054;BME280;64752;48.870;9.082;2023-06-22T03:31:22;97990.59;;;17.99;100.00
76054;BME280;64752;48.870;9.082;2023-06-22T03:33:48;97987.16;;;18.11;100.00
76054;BME280;64752;48.870;9.082;2023-06-22T03:36:15;97984.84;;;18.07;100.00
76054;BME280;64752;48.870;9.082;2023-06-22T03:38:48;97983.03;;;17.95;100.00
76054;BME280;64752;48.870;9.082;2023-06-22T03:41:15;97984.28;;;17.89;100.00
76054;BME280;64752;48.870;9.082;2023-06-22T03:43:40;97994.19;;;17.84;100.00
76054;BME280;64752;48.870;9.082;2023-06-22T03:46:06;97991.41;;;17.87;100.00
76054;BME280;64752;48.870;9.082;2023-06-22T03:48:31;97992.91;;;17.77;100.00
76054;BME280;64752;48.870;9.082;2023-06-22T03:50:57;97988.34;;;17.66;100.00
76054;BME280;64752;48.870;9.082;2023-06-22T04:06:18;97978.53;;;17.97;100.00
76054;BME280;64752;48.870;9.082;2023-06-22T04:08:45;97977.50;;;18.12;100.00
76054;BME280;64752;48.870;9.082;2023-06-22T04:11:15;97979.44;;;18.36;100.00
76054;BME280;64752;48.870;9.082;2023-06-22T04:13:41;97982.19;;;18.60;100.00
76054;BME280;64752;48.870;9.082;2023-06-22T04:16:06;97979.97;;;18.79;100.00
76054;BME280;64752;48.870;9.082;2023-06-22T04:18:32;97989.44;;;19.07;100.00
76054;BME280;64752;48.870;9.082;2023-06-22T04:20:57;97982.66;;;19.29;100.00
76054;BME280;64752;48.870;9.082;2023-06-22T04:23:22;97981.03;;;19.52;100.00
76054;BME280;64752;48.870;9.082;2023-06-22T04:25:48;97975.44;;;19.81;100.00
76054;BME280;64752;48.870;9.082;2023-06-22T04:28:13;97975.94;;;20.10;100.00
76054;BME280;64752;48.870;9.082;2023-06-22T04:30:38;97965.13;;;20.37;100.00
76054;BME280;64752;48.870;9.082;2023-06-22T04:33:12;97967.38;;;20.66;100.00
76054;BME280;64752;48.870;9.082;2023-06-22T04:35:38;97964.63;;;20.90;100.00
76054;BME280;64752;48.870;9.082;2023-06-22T04:38:06;97961.25;;;21.11;100.00
76054;BME280;64752;48.870;9.082;2023-06-22T04:40:31;97961.47;;;21.19;98.70
76054;BME280;64752;48.870;9.082;2023-06-22T04:42:57;97959.88;;;21.39;96.23
76054;BME280;64752;48.870;9.082;2023-06-22T04:45:22;97957.13;;;21.52;95.85
76054;BME280;64752;48.870;9.082;2023-06-22T04:47:48;97956.50;;;21.71;94.35
76054;BME280;64752;48.870;9.082;2023-06-22T04:50:14;97957.31;;;22.04;91.83
76054;BME280;64752;48.870;9.082;2023-06-22T04:52:40;97955.03;;;22.52;89.69
76054;BME280;64752;48.870;9.082;2023-06-22T04:55:06;97957.72;;;22.93;86.80
76054;BME280;64752;48.870;9.082;2023-06-22T04:57:31;97949.91;;;23.22;85.38
76054;BME280;64752;48.870;9.082;2023-06-22T05:00:01;97943.38;;;23.26;86.00
76054;BME280;64752;48.870;9.082;2023-06-22T05:02:27;97940.22;;;23.33;84.40
76054;BME280;64752;48.870;9.082;2023-06-22T05:04:52;97943.25;;;23.38;84.88
76054;BME280;64752;48.870;9.082;2023-06-22T05:07:22;97928.41;;;23.76;83.83
76054;BME280;64752;48.870;9.082;2023-06-22T05:09:50;97938.13;;;24.43;79.63
76054;BME280;64752;48.870;9.082;2023-06-22T05:12:18;97939.91;;;24.62;78.13
76054;BME280;64752;48.870;9.082;2023-06-22T05:14:43;97938.66;;;25.32;74.14
76054;BME280;64752;48.870;9.082;2023-06-22T05:17:09;97933.53;;;25.48;72.57
76054;BME280;64752;48.870;9.082;2023-06-22T05:19:39;97937.63;;;24.77;75.09
76054;BME280;64752;48.870;9.082;2023-06-22T05:22:10;97931.72;;;24.36;77.19
76054;BME280;64752;48.870;9.082;2023-06-22T05:24:37;97934.28;;;24.75;75.58
76054;BME280;64752;48.870;9.082;2023-06-22T05:27:03;97930.44;;;24.50;77.07
76054;BME280;64752;48.870;9.082;2023-06-22T05:29:28;97923.91;;;24.35;76.99
76054;BME280;64752;48.870;9.082;2023-06-22T05:31:53;97921.28;;;24.82;76.62
76054;BME280;64752;48.870;9.082;2023-06-22T05:34:19;97918.03;;;25.16;73.66
76054;BME280;64752;48.870;9.082;2023-06-22T05:36:44;97919.66;;;24.99;75.04
76054;BME280;64752;48.870;9.082;2023-06-22T05:39:14;97917.47;;;25.50;72.33
76054;BME280;64752;48.870;9.082;2023-06-22T05:41:40;97920.19;;;25.58;72.01
76054;BME280;64752;48.870;9.082;2023-06-22T05:44:05;97919.84;;;26.33;68.54
76054;BME280;64752;48.870;9.082;2023-06-22T05:46:31;97923.34;;;25.44;71.52
76054;BME280;64752;48.870;9.082;2023-06-22T05:48:56;97917.00;;;25.54;71.87
76054;BME280;64752;48.870;9.082;2023-06-22T05:51:21;97925.44;;;24.85;73.96
76054;BME280;64752;48.870;9.082;2023-06-22T05:53:47;97922.06;;;24.55;76.57
76054;BME280;64752;48.870;9.082;2023-06-22T05:56:17;97919.06;;;24.20;77.36
76054;BME280;64752;48.870;9.082;2023-06-22T05:58:43;97909.78;;;24.44;76.64
76054;BME280;64752;48.870;9.082;2023-06-22T06:01:08;97910.53;;;25.11;73.41
76054;BME280;64752;48.870;9.082;2023-06-22T06:03:33;97915.03;;;25.74;71.39
76054;BME280;64752;48.870;9.082;2023-06-22T06:05:59;97913.78;;;26.23;68.46
76054;BME280;64752;48.870;9.082;2023-06-22T06:08:27;97909.41;;;26.40;67.92
76054;BME280;64752;48.870;9.082;2023-06-22T06:10:53;97909.78;;;26.01;67.85
76054;BME280;64752;48.870;9.082;2023-06-22T06:13:20;97912.59;;;27.04;64.88
76054;BME280;64752;48.870;9.082;2023-06-22T06:15:45;97919.94;;;27.10;64.32
76054;BME280;64752;48.870;9.082;2023-06-22T06:18:11;97916.38;;;27.36;63.81
76054;BME280;64752;48.870;9.082;2023-06-22T06:20:36;97911.50;;;27.98;61.35
76054;BME280;64752;48.870;9.082;2023-06-22T06:23:02;97903.66;;;28.05;58.91
76054;BME280;64752;48.870;9.082;2023-06-22T06:25:27;97905.78;;;29.07;56.93
76054;BME280;64752;48.870;9.082;2023-06-22T06:27:53;97901.81;;;29.57;54.79
76054;BME280;64752;48.870;9.082;2023-06-22T06:30:20;97906.22;;;30.19;53.23
76054;BME280;64752;48.870;9.082;2023-06-22T06:32:46;97908.03;;;30.42;52.43
76054;BME280;64752;48.870;9.082;2023-06-22T06:35:13;97908.84;;;29.58;53.30
76054;BME280;64752;48.870;9.082;2023-06-22T06:37:40;97896.63;;;30.25;52.63
76054;BME280;64752;48.870;9.082;2023-06-22T06:40:07;97902.50;;;31.18;50.01
76054;BME280;64752;48.870;9.082;2023-06-22T06:42:36;97914.41;;;30.85;49.95
76054;BME280;64752;48.870;9.082;2023-06-22T06:45:04;97921.28;;;31.76;48.13
76054;BME280;64752;48.870;9.082;2023-06-22T06:47:29;97920.53;;;31.60;48.24
76054;BME280;64752;48.870;9.082;2023-06-22T06:49:54;97916.13;;;31.38;49.31
76054;BME280;64752;48.870;9.082;2023-06-22T06:52:20;97917.91;;;32.10;47.37
76054;BME280;64752;48.870;9.082;2023-06-22T06:54:45;97911.91;;;31.13;48.36
76054;BME280;64752;48.870;9.082;2023-06-22T06:57:10;97906.53;;;31.65;47.96
76054;BME280;64752;48.870;9.082;2023-06-22T06:59:38;97899.81;;;32.47;46.86
76054;BME280;64752;48.870;9.082;2023-06-22T07:02:04;97896.91;;;31.34;48.10
76054;BME280;64752;48.870;9.082;2023-06-22T07:04:30;97893.44;;;30.89;49.76
76054;BME280;64752;48.870;9.082;2023-06-22T07:06:55;97891.34;;;30.69;49.38
76054;BME280;64752;48.870;9.082;2023-06-22T07:09:20;97888.34;;;31.24;49.23
76054;BME280;64752;48.870;9.082;2023-06-22T07:11:46;97878.22;;;30.07;51.75
76054;BME280;64752;48.870;9.082;2023-06-22T07:14:13;97894.16;;;31.85;47.30
76054;BME280;64752;48.870;9.082;2023-06-22T07:16:38;97885.34;;;30.97;48.73
76054;BME280;64752;48.870;9.082;2023-06-22T07:19:03;97878.59;;;32.94;45.37
76054;BME280;64752;48.870;9.082;2023-06-22T07:21:29;97873.66;;;31.78;46.53
76054;BME280;64752;48.870;9.082;2023-06-22T07:23:54;97863.47;;;32.51;46.14
76054;BME280;64752;48.870;9.082;2023-06-22T07:26:20;97862.47;;;33.42;43.67
76054;BME280;64752;48.870;9.082;2023-06-22T07:28:45;97850.25;;;33.46;43.34
76054;BME280;64752;48.870;9.082;2023-06-22T07:31:10;97857.44;;;31.86;46.76
76054;BME280;64752;48.870;9.082;2023-06-22T07:33:36;97855.50;;;33.06;44.60
76054;BME280;64752;48.870;9.082;2023-06-22T07:36:01;97844.50;;;32.94;44.61
76054;BME280;64752;48.870;9.082;2023-06-22T07:38:28;97840.81;;;32.25;45.77
76054;BME280;64752;48.870;9.082;2023-06-22T07:40:54;97847.63;;;33.79;42.70
76054;BME280;64752;48.870;9.082;2023-06-22T07:43:19;97844.94;;;34.20;42.04
76054;BME280;64752;48.870;9.082;2023-06-22T07:45:51;97828.09;;;33.37;43.37
76054;BME280;64752;48.870;9.082;2023-06-22T07:48:22;97826.72;;;34.02;41.96
76054;BME280;64752;48.870;9.082;2023-06-22T07:50:48;97831.13;;;35.26;40.14
76054;BME280;64752;48.870;9.082;2023-06-22T07:53:14;97829.72;;;34.52;39.35
76054;BME280;64752;48.870;9.082;2023-06-22T07:55:39;97821.53;;;33.53;42.05
76054;BME280;64752;48.870;9.082;2023-06-22T07:58:04;97824.78;;;35.07;39.93
76054;BME280;64752;48.870;9.082;2023-06-22T08:00:30;97825.50;;;34.89;39.93
76054;BME280;64752;48.870;9.082;2023-06-22T08:02:55;97841.97;;;32.44;45.17
76054;BME280;64752;48.870;9.082;2023-06-22T08:05:21;97847.22;;;35.40;38.23
76054;BME280;64752;48.870;9.082;2023-06-22T08:07:47;97856.09;;;36.04;37.39
76054;BME280;64752;48.870;9.082;2023-06-22T08:10:13;97859.19;;;36.76;36.19
76054;BME280;64752;48.870;9.082;2023-06-22T08:16:28;97867.78;;;35.41;38.06
76054;BME280;64752;48.870;9.082;2023-06-22T08:26:02;97869.22;;;35.75;37.27
76054;BME280;64752;48.870;9.082;2023-06-22T08:28:27;97863.22;;;35.35;38.11
76054;BME280;64752;48.870;9.082;2023-06-22T08:40:58;97857.28;;;33.40;42.86
76054;BME280;64752;48.870;9.082;2023-06-22T08:43:25;97864.28;;;33.21;42.97
76054;BME280;64752;48.870;9.082;2023-06-22T08:45:50;97855.22;;;32.53;44.35
76054;BME280;64752;48.870;9.082;2023-06-22T08:48:15;97858.03;;;31.45;46.37
76054;BME280;64752;48.870;9.082;2023-06-22T08:50:41;97855.22;;;31.96;45.45
76054;BME280;64752;48.870;9.082;2023-06-22T08:53:06;97852.78;;;31.73;45.99
76054;BME280;64752;48.870;9.082;2023-06-22T08:55:34;97857.09;;;31.31;46.66
76054;BME280;64752;48.870;9.082;2023-06-22T08:57:59;97854.94;;;31.63;46.78
76054;BME280;64752;48.870;9.082;2023-06-22T09:00:25;97859.19;;;31.36;48.13
76054;BME280;64752;48.870;9.082;2023-06-22T09:02:50;97864.09;;;32.88;44.19
76054;BME280;64752;48.870;9.082;2023-06-22T09:05:16;97880.66;;;32.57;45.90
76054;BME280;64752;48.870;9.082;2023-06-22T09:07:41;97898.31;;;33.89;42.75
76054;BME280;64752;48.870;9.082;2023-06-22T09:10:07;97909.69;;;34.65;41.11
76054;BME280;64752;48.870;9.082;2023-06-22T09:12:33;97895.13;;;35.44;40.11
76054;BME280;64752;48.870;9.082;2023-06-22T09:15:01;97845.97;;;36.61;36.29
76054;BME280;64752;48.870;9.082;2023-06-22T09:17:27;97855.13;;;37.76;34.17
76054;BME280;64752;48.870;9.082;2023-06-22T09:19:53;97862.19;;;35.99;37.63
76054;BME280;64752;48.870;9.082;2023-06-22T09:22:19;97851.22;;;37.12;35.15
76054;BME280;64752;48.870;9.082;2023-06-22T09:24:44;97850.91;;;37.92;34.66
76054;BME280;64752;48.870;9.082;2023-06-22T09:27:10;97835.94;;;37.90;34.37
76054;BME280;64752;48.870;9.082;2023-06-22T09:29:35;97827.03;;;35.49;37.36
76054;BME280;64752;48.870;9.082;2023-06-22T09:32:01;97820.16;;;34.63;39.83
76054;BME280;64752;48.870;9.082;2023-06-22T09:34:26;97814.53;;;36.30;37.27
76054;BME280;64752;48.870;9.082;2023-06-22T09:36:52;97814.53;;;38.12;34.05
76054;BME280;64752;48.870;9.082;2023-06-22T09:39:18;97794.16;;;37.86;34.32
76054;BME280;64752;48.870;9.082;2023-06-22T09:41:44;97795.94;;;38.27;33.67
76054;BME280;64752;48.870;9.082;2023-06-22T09:44:09;97791.94;;;37.29;35.62
76054;BME280;64752;48.870;9.082;2023-06-22T09:46:34;97784.97;;;37.63;35.99
76054;BME280;64752;48.870;9.082;2023-06-22T09:49:00;97787.13;;;38.72;33.53
76054;BME280;64752;48.870;9.082;2023-06-22T09:51:25;97778.97;;;37.96;34.54
76054;BME280;64752;48.870;9.082;2023-06-22T09:53:51;97780.22;;;37.58;35.22
76054;BME280;64752;48.870;9.082;2023-06-22T09:56:17;97783.63;;;36.44;36.73
76054;BME280;64752;48.870;9.082;2023-06-22T09:58:43;97775.06;;;37.80;35.56
76054;BME280;64752;48.870;9.082;2023-06-22T10:01:09;97767.78;;;38.28;35.32
76054;BME280;64752;48.870;9.082;2023-06-22T10:03:35;97772.31;;;38.63;33.89
76054;BME280;64752;48.870;9.082;2023-06-22T10:06:01;97779.28;;;39.45;32.46
76054;BME280;64752;48.870;9.082;2023-06-22T10:08:27;97777.06;;;38.44;34.20
76054;BME280;64752;48.870;9.082;2023-06-22T10:10:52;97768.53;;;37.34;36.14
76054;BME280;64752;48.870;9.082;2023-06-22T10:13:18;97782.34;;;36.65;37.54
76054;BME280;64752;48.870;9.082;2023-06-22T10:15:44;97772.38;;;37.69;36.12
76054;BME280;64752;48.870;9.082;2023-06-22T10:18:15;97757.06;;;36.78;36.41
76054;BME280;64752;48.870;9.082;2023-06-22T10:20:41;97748.97;;;36.90;36.86
76054;BME280;64752;48.870;9.082;2023-06-22T10:23:06;97756.25;;;36.41;37.29
76054;BME280;64752;48.870;9.082;2023-06-22T10:25:31;97762.94;;;36.38;37.29
76054;BME280;64752;48.870;9.082;2023-06-22T10:27:57;97753.47;;;37.27;36.09
76054;BME280;64752;48.870;9.082;2023-06-22T10:30:22;97752.69;;;37.61;35.77
76054;BME280;64752;48.870;9.082;2023-06-22T10:32:48;97752.09;;;38.42;33.83
76054;BME280;64752;48.870;9.082;2023-06-22T10:35:14;97744.44;;;36.17;37.50
76054;BME280;64752;48.870;9.082;2023-06-22T10:37:44;97742.56;;;35.99;37.25
76054;BME280;64752;48.870;9.082;2023-06-22T10:40:11;97738.69;;;36.32;36.82
76054;BME280;64752;48.870;9.082;2023-06-22T10:42:37;97737.19;;;38.16;34.85
76054;BME280;64752;48.870;9.082;2023-06-22T10:45:02;97735.38;;;39.03;33.12
76054;BME280;64752;48.870;9.082;2023-06-22T10:47:28;97734.06;;;37.30;35.84
76054;BME280;64752;48.870;9.082;2023-06-22T10:49:53;97722.00;;;36.53;36.35
76054;BME280;64752;48.870;9.082;2023-06-22T10:52:18;97720.72;;;35.82;37.96
76054;BME280;64752;48.870;9.082;2023-06-22T10:54:44;97721.28;;;36.95;35.69
76054;BME280;64752;48.870;9.082;2023-06-22T10:57:09;97723.72;;;36.66;36.74
76054;BME280;64752;48.870;9.082;2023-06-22T10:59:34;97713.47;;;37.40;34.89
76054;BME280;64752;48.870;9.082;2023-06-22T11:02:00;97709.53;;;37.90;34.37
76054;BME280;64752;48.870;9.082;2023-06-22T11:04:25;97720.22;;;37.61;35.05
76054;BME280;64752;48.870;9.082;2023-06-22T11:06:51;97720.91;;;37.33;34.49
76054;BME280;64752;48.870;9.082;2023-06-22T11:09:17;97723.06;;;37.67;34.36
76054;BME280;64752;48.870;9.082;2023-06-22T11:11:46;97718.00;;;37.82;33.71
76054;BME280;64752;48.870;9.082;2023-06-22T11:14:11;97711.28;;;37.73;34.44
76054;BME280;64752;48.870;9.082;2023-06-22T11:16:36;97716.31;;;37.34;34.47
76054;BME280;64752;48.870;9.082;2023-06-22T11:19:04;97718.19;;;38.04;34.36
76054;BME280;64752;48.870;9.082;2023-06-22T11:21:29;97718.59;;;37.96;34.43
76054;BME280;64752;48.870;9.082;2023-06-22T11:23:55;97713.03;;;37.79;34.75
76054;BME280;64752;48.870;9.082;2023-06-22T11:26:20;97709.25;;;38.04;34.70
76054;BME280;64752;48.870;9.082;2023-06-22T11:28:46;97708.13;;;37.10;34.59
76054;BME280;64752;48.870;9.082;2023-06-22T11:31:12;97711.28;;;35.91;37.58
76054;BME280;64752;48.870;9.082;2023-06-22T11:33:37;97711.50;;;35.21;39.03
76054;BME280;64752;48.870;9.082;2023-06-22T11:36:03;97701.13;;;34.86;39.93
76054;BME280;64752;48.870;9.082;2023-06-22T11:38:28;97702.50;;;35.27;38.39
76054;BME280;64752;48.870;9.082;2023-06-22T11:40:55;97700.84;;;35.51;38.21
76054;BME280;64752;48.870;9.082;2023-06-22T11:43:21;97683.06;;;35.68;37.59
76054;BME280;64752;48.870;9.082;2023-06-22T11:45:46;97681.91;;;35.58;38.18
76054;BME280;64752;48.870;9.082;2023-06-22T11:48:12;97684.41;;;34.77;39.39
76054;BME280;64752;48.870;9.082;2023-06-22T11:50:37;97692.50;;;34.32;40.71
76054;BME280;64752;48.870;9.082;2023-06-22T11:53:02;97691.81;;;33.65;42.23
76054;BME280;64752;48.870;9.082;2023-06-22T11:55:28;97694.31;;;34.38;41.23
76054;BME280;64752;48.870;9.082;2023-06-22T11:57:57;97695.47;;;34.55;41.12
76054;BME280;64752;48.870;9.082;2023-06-22T12:00:26;97693.22;;;33.94;42.03
76054;BME280;64752;48.870;9.082;2023-06-22T12:02:51;97693.06;;;33.29;43.26
76054;BME280;64752;48.870;9.082;2023-06-22T12:05:21;97690.38;;;33.22;43.77
76054;BME280;64752;48.870;9.082;2023-06-22T12:07:48;97714.16;;;33.45;43.39
76054;BME280;64752;48.870;9.082;2023-06-22T12:10:14;97712.09;;;33.20;44.45
76054;BME280;64752;48.870;9.082;2023-06-22T12:12:41;97713.47;;;32.96;44.79
76054;BME280;64752;48.870;9.082;2023-06-22T12:15:07;97725.78;;;33.66;43.28
76054;BME280;64752;48.870;9.082;2023-06-22T12:17:34;97714.09;;;33.98;42.51
76054;BME280;64752;48.870;9.082;2023-06-22T12:19:59;97709.47;;;34.26;42.30
76054;BME280;64752;48.870;9.082;2023-06-22T12:22:24;97719.47;;;34.70;41.70
76054;BME280;64752;48.870;9.082;2023-06-22T12:24:50;97714.09;;;34.70;39.98
76054;BME280;64752;48.870;9.082;2023-06-22T12:27:16;97720.50;;;35.01;41.00
76054;BME280;64752;48.870;9.082;2023-06-22T12:29:44;97713.06;;;33.99;41.50
76054;BME280;64752;48.870;9.082;2023-06-22T12:32:10;97702.91;;;34.60;41.06
76054;BME280;64752;48.870;9.082;2023-06-22T12:34:38;97704.00;;;34.52;41.97
76054;BME280;64752;48.870;9.082;2023-06-22T12:37:03;97714.03;;;34.77;42.00
76054;BME280;64752;48.870;9.082;2023-06-22T12:39:30;97701.13;;;34.86;41.64
76054;BME280;64752;48.870;9.082;2023-06-22T12:41:56;97704.31;;;34.76;41.18
76054;BME280;64752;48.870;9.082;2023-06-22T12:44:21;97712.22;;;35.03;41.16
76054;BME280;64752;48.870;9.082;2023-06-22T12:46:46;97714.97;;;35.53;39.73
76054;BME280;64752;48.870;9.082;2023-06-22T12:49:12;97701.56;;;35.65;39.49
76054;BME280;64752;48.870;9.082;2023-06-22T12:51:40;97709.31;;;35.55;40.87
76054;BME280;64752;48.870;9.082;2023-06-22T12:54:07;97708.69;;;36.03;38.12
76054;BME280;64752;48.870;9.082;2023-06-22T12:56:33;97710.00;;;34.54;40.78
76054;BME280;64752;48.870;9.082;2023-06-22T12:58:58;97719.09;;;35.30;40.28
76054;BME280;64752;48.870;9.082;2023-06-22T13:01:29;97714.41;;;35.19;39.78
76054;BME280;64752;48.870;9.082;2023-06-22T13:03:58;97719.41;;;34.77;40.12
76054;BME280;64752;48.870;9.082;2023-06-22T13:06:24;97720.88;;;34.28;41.29
76054;BME280;64752;48.870;9.082;2023-06-22T13:08:49;97714.69;;;34.07;42.55
76054;BME280;64752;48.870;9.082;2023-06-22T13:11:15;97713.31;;;33.45;44.96
76054;BME280;64752;48.870;9.082;2023-06-22T13:13:40;97718.22;;;32.88;46.82
76054;BME280;64752;48.870;9.082;2023-06-22T13:16:07;97724.63;;;32.38;49.72
76054;BME280;64752;48.870;9.082;2023-06-22T13:18:33;97724.16;;;31.86;51.36
76054;BME280;64752;48.870;9.082;2023-06-22T13:21:01;97718.09;;;31.78;51.53
76054;BME280;64752;48.870;9.082;2023-06-22T13:23:26;97709.22;;;31.77;50.68
76054;BME280;64752;48.870;9.082;2023-06-22T13:25:51;97705.50;;;32.06;49.43
76054;BME280;64752;48.870;9.082;2023-06-22T13:28:17;97688.34;;;32.49;49.25
76054;BME280;64752;48.870;9.082;2023-06-22T13:30:42;97681.03;;;32.91;47.85
76054;BME280;64752;48.870;9.082;2023-06-22T13:33:10;97671.16;;;33.38;45.73